sensor_id;sensor_type;location;lat;lon;timestamp;pressure;altitude;pressure_sealevel;temperature;humidity
77867;BME280;67271;59.120;37.970;2023-03-05T00:05:11;97626.19;;;-2.91;80.50
77867;BME280;67271;59.120;37.970;2023-03-05T00:07:37;97621.06;;;-2.93;80.65
77867;BME280;67271;59.120;37.970;2023-03-05T00:10:04;97616.44;;;-2.91;80.84
77867;BME280;67271;59.120;37.970;2023-03-05T00:12:30;97623.22;;;-2.88;80.76
77867;BME280;67271;59.120;37.970;2023-03-05T00:14:56;97628.50;;;-2.88;80.82
77867;BME280;67271;59.120;37.970;2023-03-05T00:17:22;97615.75;;;-2.85;80.36
77867;BME280;67271;59.120;37.970;2023-03-05T00:19:48;97621.69;;;-2.83;80.65
77867;BME280;67271;59.120;37.970;2023-03-05T00:22:13;97620.41;;;-2.87;80.71
77867;BME280;67271;59.120;37.970;2023-03-05T00:24:39;97618.91;;;-2.89;80.55
77867;BME280;67271;59.120;37.970;2023-03-05T00:27:05;97626.69;;;-2.88;80.58
77867;BME280;67271;59.120;37.970;2023-03-05T00:29:30;97621.41;;;-2.88;80.71
77867;BME280;67271;59.120;37.970;2023-03-05T00:31:56;97627.50;;;-2.87;80.78
77867;BME280;67271;59.120;37.970;2023-03-05T00:34:22;97616.09;;;-2.88;80.88
77867;BME280;67271;59.120;37.970;2023-03-05T00:36:51;97624.03;;;-2.88;80.63
77867;BME280;67271;59.120;37.970;2023-03-05T00:39:18;97626.69;;;-2.88;80.76
77867;BME280;67271;59.120;37.970;2023-03-05T00:41:45;97620.41;;;-2.87;81.00
77867;BME280;67271;59.120;37.970;2023-03-05T00:44:11;97630.00;;;-2.86;80.77
77867;BME280;67271;59.120;37.970;2023-03-05T00:46:37;97619.88;;;-2.82;80.65
77867;BME280;67271;59.120;37.970;2023-03-05T00:49:05;97623.34;;;-2.82;80.33
77867;BME280;67271;59.120;37.970;2023-03-05T00:51:31;97620.34;;;-2.79;80.34
77867;BME280;67271;59.120;37.970;2023-03-05T00:53:57;97625.28;;;-2.76;80.29
77867;BME280;67271;59.120;37.970;2023-03-05T00:56:22;97619.34;;;-2.78;79.98
77867;BME280;67271;59.120;37.970;2023-03-05T00:58:48;97626.66;;;-2.80;80.60
77867;BME280;67271;59.120;37.970;2023-03-05T01:01:14;97626.81;;;-2.81;80.38
77867;BME280;67271;59.120;37.970;2023-03-05T01:03:41;97625.16;;;-2.82;80.54
77867;BME280;67271;59.120;37.970;2023-03-05T01:06:09;97618.88;;;-2.81;80.36
77867;BME280;67271;59.120;37.970;2023-03-05T01:08:37;97614.03;;;-2.78;80.21
77867;BME280;67271;59.120;37.970;2023-03-05T01:11:04;97623.28;;;-2.74;80.26
77867;BME280;67271;59.120;37.970;2023-03-05T01:13:30;97620.66;;;-2.74;80.26
77867;BME280;67271;59.120;37.970;2023-03-05T01:15:56;97623.75;;;-2.70;80.11
77867;BME280;67271;59.120;37.970;2023-03-05T01:18:22;97625.88;;;-2.65;79.96
77867;BME280;67271;59.120;37.970;2023-03-05T01:20:48;97635.47;;;-2.64;79.88
77867;BME280;67271;59.120;37.970;2023-03-05T01:23:13;97624.25;;;-2.66;80.14
77867;BME280;67271;59.120;37.970;2023-03-05T01:25:40;97628.88;;;-2.68;80.44
77867;BME280;67271;59.120;37.970;2023-03-05T01:28:06;97628.22;;;-2.70;80.18
77867;BME280;67271;59.120;37.970;2023-03-05T01:30:32;97626.22;;;-2.68;80.06
77867;BME280;67271;59.120;37.970;2023-03-05T01:32:58;97628.72;;;-2.67;80.12
77867;BME280;67271;59.120;37.970;2023-03-05T01:35:25;97626.41;;;-2.70;80.12
77867;BME280;67271;59.120;37.970;2023-03-05T01:37:52;97626.41;;;-2.70;80.15
77867;BME280;67271;59.120;37.970;2023-03-05T01:40:28;97622.41;;;-2.66;80.28
77867;BME280;67271;59.120;37.970;2023-03-05T01:46:10;97615.66;;;-2.68;80.17
77867;BME280;67271;59.120;37.970;2023-03-05T01:48:25;97622.31;;;-2.72;80.37
77867;BME280;67271;59.120;37.970;2023-03-05T01:50:50;97626.94;;;-2.75;80.08
77867;BME280;67271;59.120;37.970;2023-03-05T01:53:16;97626.94;;;-2.75;79.94
77867;BME280;67271;59.120;37.970;2023-03-05T01:55:42;97620.97;;;-2.77;80.28
77867;BME280;67271;59.120;37.970;2023-03-05T01:58:12;97628.75;;;-2.75;80.29
77867;BME280;67271;59.120;37.970;2023-03-05T02:00:49;97625.81;;;-2.80;80.13
77867;BME280;67271;59.120;37.970;2023-03-05T02:03:17;97629.63;;;-2.83;80.17
77867;BME280;67271;59.120;37.970;2023-03-05T02:05:44;97628.97;;;-2.85;80.23
77867;BME280;67271;59.120;37.970;2023-03-05T02:08:13;97621.03;;;-2.85;80.50
77867;BME280;67271;59.120;37.970;2023-03-05T02:10:42;97626.31;;;-2.85;79.89
77867;BME280;67271;59.120;37.970;2023-03-05T02:13:11;97633.13;;;-2.90;80.21
77867;BME280;67271;59.120;37.970;2023-03-05T02:15:38;97621.44;;;-2.96;80.45
77867;BME280;67271;59.120;37.970;2023-03-05T02:18:06;97631.38;;;-2.98;80.26
77867;BME280;67271;59.120;37.970;2023-03-05T02:23:13;97630.25;;;-3.03;80.62
77867;BME280;67271;59.120;37.970;2023-03-05T02:25:39;97624.78;;;-3.02;80.30
77867;BME280;67271;59.120;37.970;2023-03-05T02:30:31;97622.63;;;-3.06;80.28
77867;BME280;67271;59.120;37.970;2023-03-05T02:32:57;97621.47;;;-3.04;80.28
77867;BME280;67271;59.120;37.970;2023-03-05T02:35:24;97626.78;;;-3.04;80.19
77867;BME280;67271;59.120;37.970;2023-03-05T02:37:50;97632.06;;;-3.04;80.25
77867;BME280;67271;59.120;37.970;2023-03-05T02:40:16;97625.44;;;-3.08;80.11
77867;BME280;67271;59.120;37.970;2023-03-05T02:42:42;97631.28;;;-3.13;80.56
77867;BME280;67271;59.120;37.970;2023-03-05T02:45:10;97618.88;;;-3.12;80.38
77867;BME280;67271;59.120;37.970;2023-03-05T02:47:36;97623.81;;;-3.09;80.04
77867;BME280;67271;59.120;37.970;2023-03-05T02:50:04;97625.28;;;-3.06;80.25
77867;BME280;67271;59.120;37.970;2023-03-05T02:52:30;97629.75;;;-3.07;80.30
77867;BME280;67271;59.120;37.970;2023-03-05T02:54:56;97630.75;;;-3.08;80.03
77867;BME280;67271;59.120;37.970;2023-03-05T02:57:22;97626.47;;;-3.09;79.78
77867;BME280;67271;59.120;37.970;2023-03-05T02:59:48;97629.44;;;-3.12;79.74
77867;BME280;67271;59.120;37.970;2023-03-05T03:02:14;97628.16;;;-3.16;80.04
77867;BME280;67271;59.120;37.970;2023-03-05T03:04:42;97625.69;;;-3.18;79.90
77867;BME280;67271;59.120;37.970;2023-03-05T03:07:09;97624.50;;;-3.15;79.73
77867;BME280;67271;59.120;37.970;2023-03-05T03:09:35;97627.47;;;-3.10;80.02
77867;BME280;67271;59.120;37.970;2023-03-05T03:12:02;97618.00;;;-3.04;79.66
77867;BME280;67271;59.120;37.970;2023-03-05T03:14:35;97624.78;;;-3.02;79.40
77867;BME280;67271;59.120;37.970;2023-03-05T03:17:10;97629.13;;;-3.09;79.79
77867;BME280;67271;59.120;37.970;2023-03-05T03:19:37;97619.91;;;-3.21;79.76
77867;BME280;67271;59.120;37.970;2023-03-05T03:22:04;97623.41;;;-3.29;80.32
77867;BME280;67271;59.120;37.970;2023-03-05T03:24:31;97623.28;;;-3.35;79.99
77867;BME280;67271;59.120;37.970;2023-03-05T03:26:57;97626.06;;;-3.37;80.21
77867;BME280;67271;59.120;37.970;2023-03-05T03:29:22;97628.91;;;-3.38;80.50
77867;BME280;67271;59.120;37.970;2023-03-05T03:31:48;97636.19;;;-3.40;80.30
77867;BME280;67271;59.120;37.970;2023-03-05T03:34:15;97621.47;;;-3.43;80.25
77867;BME280;67271;59.120;37.970;2023-03-05T03:36:45;97633.53;;;-3.40;79.97
77867;BME280;67271;59.120;37.970;2023-03-05T03:39:12;97628.59;;;-3.43;80.00
77867;BME280;67271;59.120;37.970;2023-03-05T03:41:44;97627.63;;;-3.51;79.99
77867;BME280;67271;59.120;37.970;2023-03-05T03:44:11;97637.88;;;-3.56;80.34
77867;BME280;67271;59.120;37.970;2023-03-05T03:46:39;97637.06;;;-3.56;80.43
77867;BME280;67271;59.120;37.970;2023-03-05T03:49:06;97642.19;;;-3.55;80.26
77867;BME280;67271;59.120;37.970;2023-03-05T03:51:33;97638.22;;;-3.59;80.26
77867;BME280;67271;59.120;37.970;2023-03-05T03:53:59;97636.09;;;-3.63;80.29
77867;BME280;67271;59.120;37.970;2023-03-05T03:56:25;97637.25;;;-3.66;80.30
77867;BME280;67271;59.120;37.970;2023-03-05T03:58:52;97633.59;;;-3.65;80.09
77867;BME280;67271;59.120;37.970;2023-03-05T04:01:19;97639.22;;;-3.68;80.28
77867;BME280;67271;59.120;37.970;2023-03-05T04:03:45;97638.06;;;-3.73;80.32
77867;BME280;67271;59.120;37.970;2023-03-05T04:06:11;97637.59;;;-3.69;80.15
77867;BME280;67271;59.120;37.970;2023-03-05T04:08:37;97641.53;;;-3.65;80.04
77867;BME280;67271;59.120;37.970;2023-03-05T04:11:03;97639.22;;;-3.68;80.26
77867;BME280;67271;59.120;37.970;2023-03-05T04:13:29;97638.22;;;-3.67;80.14
77867;BME280;67271;59.120;37.970;2023-03-05T04:15:55;97637.25;;;-3.66;80.00
77867;BME280;67271;59.120;37.970;2023-03-05T04:18:22;97640.22;;;-3.69;80.00
77867;BME280;67271;59.120;37.970;2023-03-05T04:20:47;97639.22;;;-3.68;80.04
77867;BME280;67271;59.120;37.970;2023-03-05T04:23:13;97632.78;;;-3.65;80.16
77867;BME280;67271;59.120;37.970;2023-03-05T04:25:39;97639.22;;;-3.68;79.66
77867;BME280;67271;59.120;37.970;2023-03-05T04:28:05;97643.19;;;-3.64;80.00
77867;BME280;67271;59.120;37.970;2023-03-05T04:30:31;97645.00;;;-3.64;79.96
77867;BME280;67271;59.120;37.970;2023-03-05T04:32:57;97650.81;;;-3.69;79.79
77867;BME280;67271;59.120;37.970;2023-03-05T04:35:23;97651.78;;;-3.70;79.92
77867;BME280;67271;59.120;37.970;2023-03-05T04:37:49;97640.88;;;-3.67;80.15
77867;BME280;67271;59.120;37.970;2023-03-05T04:40:15;97645.16;;;-3.66;79.81
77867;BME280;67271;59.120;37.970;2023-03-05T04:42:42;97651.78;;;-3.70;79.55
77867;BME280;67271;59.120;37.970;2023-03-05T04:45:08;97649.31;;;-3.71;80.13
77867;BME280;67271;59.120;37.970;2023-03-05T04:47:36;97650.31;;;-3.72;80.00
77867;BME280;67271;59.120;37.970;2023-03-05T04:50:03;97645.84;;;-3.72;79.72
77867;BME280;67271;59.120;37.970;2023-03-05T04:52:29;97646.50;;;-3.70;79.65
77867;BME280;67271;59.120;37.970;2023-03-05T04:54:55;97647.97;;;-3.67;79.22
77867;BME280;67271;59.120;37.970;2023-03-05T04:57:20;97642.53;;;-3.66;79.65
77867;BME280;67271;59.120;37.970;2023-03-05T04:59:46;97653.59;;;-3.70;79.23
77867;BME280;67271;59.120;37.970;2023-03-05T05:02:12;97648.47;;;-3.72;79.54
77867;BME280;67271;59.120;37.970;2023-03-05T05:04:38;97654.91;;;-3.66;79.55
77867;BME280;67271;59.120;37.970;2023-03-05T05:07:04;97645.81;;;-3.64;79.43
77867;BME280;67271;59.120;37.970;2023-03-05T05:09:32;97651.44;;;-3.67;78.88
77867;BME280;67271;59.120;37.970;2023-03-05T05:11:58;97651.59;;;-3.68;79.06
77867;BME280;67271;59.120;37.970;2023-03-05T05:14:23;97655.56;;;-3.64;79.00
77867;BME280;67271;59.120;37.970;2023-03-05T05:16:49;97646.47;;;-3.54;79.16
77867;BME280;67271;59.120;37.970;2023-03-05T05:19:15;97656.34;;;-3.39;78.34
77867;BME280;67271;59.120;37.970;2023-03-05T05:21:42;97656.94;;;-3.29;78.22
77867;BME280;67271;59.120;37.970;2023-03-05T05:24:07;97654.31;;;-3.29;78.26
77867;BME280;67271;59.120;37.970;2023-03-05T05:26:33;97660.63;;;-3.38;78.38
77867;BME280;67271;59.120;37.970;2023-03-05T05:28:59;97667.22;;;-3.34;78.31
77867;BME280;67271;59.120;37.970;2023-03-05T05:31:25;97669.00;;;-3.27;78.32
77867;BME280;67271;59.120;37.970;2023-03-05T05:33:51;97659.13;;;-3.33;78.34
77867;BME280;67271;59.120;37.970;2023-03-05T05:36:17;97668.03;;;-3.34;78.57
77867;BME280;67271;59.120;37.970;2023-03-05T05:38:44;97669.84;;;-3.26;78.44
77867;BME280;67271;59.120;37.970;2023-03-05T05:41:12;97671.31;;;-3.24;78.30
77867;BME280;67271;59.120;37.970;2023-03-05T05:43:39;97677.59;;;-3.25;78.31
77867;BME280;67271;59.120;37.970;2023-03-05T05:46:13;97675.44;;;-3.29;78.38
77867;BME280;67271;59.120;37.970;2023-03-05T05:48:39;97674.00;;;-3.32;78.28
77867;BME280;67271;59.120;37.970;2023-03-05T05:51:10;97670.69;;;-3.34;78.19
77867;BME280;67271;59.120;37.970;2023-03-05T05:53:37;97681.09;;;-3.32;78.10
77867;BME280;67271;59.120;37.970;2023-03-05T05:56:04;97677.41;;;-3.23;78.10
77867;BME280;67271;59.120;37.970;2023-03-05T05:58:30;97680.22;;;-3.17;77.63
77867;BME280;67271;59.120;37.970;2023-03-05T06:00:56;97677.72;;;-3.10;77.31
77867;BME280;67271;59.120;37.970;2023-03-05T06:03:22;97683.31;;;-3.05;77.11
77867;BME280;67271;59.120;37.970;2023-03-05T06:05:48;97693.38;;;-3.00;77.53
77867;BME280;67271;59.120;37.970;2023-03-05T06:08:14;97692.88;;;-2.96;77.62
77867;BME280;67271;59.120;37.970;2023-03-05T06:10:40;97691.41;;;-3.06;77.46
77867;BME280;67271;59.120;37.970;2023-03-05T06:13:05;97689.63;;;-3.14;77.62
77867;BME280;67271;59.120;37.970;2023-03-05T06:15:31;97682.38;;;-3.20;77.76
77867;BME280;67271;59.120;37.970;2023-03-05T06:18:00;97691.00;;;-3.26;77.73
77867;BME280;67271;59.120;37.970;2023-03-05T06:20:26;97685.34;;;-3.23;77.82
77867;BME280;67271;59.120;37.970;2023-03-05T06:22:53;97693.63;;;-3.18;77.74
77867;BME280;67271;59.120;37.970;2023-03-05T06:25:19;97691.78;;;-3.18;77.46
77867;BME280;67271;59.120;37.970;2023-03-05T06:27:45;97689.97;;;-3.17;77.19
77867;BME280;67271;59.120;37.970;2023-03-05T06:30:11;97694.91;;;-3.14;76.93
77867;BME280;67271;59.120;37.970;2023-03-05T06:32:37;97695.56;;;-3.12;77.37
77867;BME280;67271;59.120;37.970;2023-03-05T06:35:03;97696.50;;;-2.97;76.83
77867;BME280;67271;59.120;37.970;2023-03-05T06:37:29;97698.63;;;-2.92;76.83
77867;BME280;67271;59.120;37.970;2023-03-05T06:39:55;97702.94;;;-2.99;76.88
77867;BME280;67271;59.120;37.970;2023-03-05T06:42:21;97696.38;;;-3.03;76.92
77867;BME280;67271;59.120;37.970;2023-03-05T06:44:46;97706.09;;;-2.96;76.95
77867;BME280;67271;59.120;37.970;2023-03-05T06:47:12;97702.13;;;-3.00;76.68
77867;BME280;67271;59.120;37.970;2023-03-05T06:49:39;97711.09;;;-3.01;77.02
77867;BME280;67271;59.120;37.970;2023-03-05T06:52:05;97706.16;;;-3.12;76.88
77867;BME280;67271;59.120;37.970;2023-03-05T06:54:34;97712.13;;;-3.18;76.63
77867;BME280;67271;59.120;37.970;2023-03-05T06:57:00;97705.16;;;-3.11;76.78
77867;BME280;67271;59.120;37.970;2023-03-05T06:59:26;97708.59;;;-3.02;76.57
77867;BME280;67271;59.120;37.970;2023-03-05T07:01:52;97710.25;;;-3.01;76.31
77867;BME280;67271;59.120;37.970;2023-03-05T07:04:18;97716.69;;;-3.04;76.40
77867;BME280;67271;59.120;37.970;2023-03-05T07:06:44;97715.22;;;-3.06;76.05
77867;BME280;67271;59.120;37.970;2023-03-05T07:09:12;97716.06;;;-3.14;76.44
77867;BME280;67271;59.120;37.970;2023-03-05T07:11:39;97707.50;;;-3.16;76.20
77867;BME280;67271;59.120;37.970;2023-03-05T07:14:05;97722.19;;;-3.14;75.97
77867;BME280;67271;59.120;37.970;2023-03-05T07:16:33;97717.38;;;-3.02;75.89
77867;BME280;67271;59.120;37.970;2023-03-05T07:19:00;97719.94;;;-2.86;75.40
77867;BME280;67271;59.120;37.970;2023-03-05T07:21:30;97714.94;;;-2.72;75.06
77867;BME280;67271;59.120;37.970;2023-03-05T07:23:58;97720.47;;;-2.59;75.02
77867;BME280;67271;59.120;37.970;2023-03-05T07:26:25;97722.28;;;-2.60;74.86
77867;BME280;67271;59.120;37.970;2023-03-05T07:28:52;97730.09;;;-2.66;74.74
77867;BME280;67271;59.120;37.970;2023-03-05T07:31:20;97729.53;;;-2.93;75.02
77867;BME280;67271;59.120;37.970;2023-03-05T07:33:48;97737.25;;;-3.30;75.82
77867;BME280;67271;59.120;37.970;2023-03-05T07:36:14;97739.97;;;-3.46;76.44
77867;BME280;67271;59.120;37.970;2023-03-05T07:38:40;97744.56;;;-3.48;76.71
77867;BME280;67271;59.120;37.970;2023-03-05T07:41:09;97739.13;;;-3.39;76.24
77867;BME280;67271;59.120;37.970;2023-03-05T07:43:35;97745.00;;;-3.21;75.62
77867;BME280;67271;59.120;37.970;2023-03-05T07:46:09;97737.09;;;-2.74;74.46
77867;BME280;67271;59.120;37.970;2023-03-05T07:48:36;97734.44;;;-2.12;72.85
77867;BME280;67271;59.120;37.970;2023-03-05T07:51:03;97735.16;;;-1.80;72.09
77867;BME280;67271;59.120;37.970;2023-03-05T07:53:29;97741.78;;;-1.76;71.25
77867;BME280;67271;59.120;37.970;2023-03-05T07:55:55;97741.13;;;-1.78;71.36
77867;BME280;67271;59.120;37.970;2023-03-05T07:58:21;97737.31;;;-1.76;71.39
77867;BME280;67271;59.120;37.970;2023-03-05T08:00:47;97748.44;;;-1.80;71.52
77867;BME280;67271;59.120;37.970;2023-03-05T08:03:13;97745.09;;;-1.37;70.64
77867;BME280;67271;59.120;37.970;2023-03-05T08:05:39;97734.69;;;-0.94;69.16
77867;BME280;67271;59.120;37.970;2023-03-05T08:08:06;97738.59;;;-0.90;69.20
77867;BME280;67271;59.120;37.970;2023-03-05T08:10:32;97741.53;;;-1.29;69.93
77867;BME280;67271;59.120;37.970;2023-03-05T08:12:58;97749.50;;;-1.67;70.22
77867;BME280;67271;59.120;37.970;2023-03-05T08:15:24;97760.69;;;-1.79;70.52
77867;BME280;67271;59.120;37.970;2023-03-05T08:17:50;97760.81;;;-1.96;70.76
77867;BME280;67271;59.120;37.970;2023-03-05T08:20:16;97758.47;;;-1.90;70.42
77867;BME280;67271;59.120;37.970;2023-03-05T08:22:44;97752.38;;;-1.53;69.54
77867;BME280;67271;59.120;37.970;2023-03-05T08:25:10;97752.25;;;-1.23;68.87
77867;BME280;67271;59.120;37.970;2023-03-05T08:27:42;97756.09;;;-1.10;68.63
77867;BME280;67271;59.120;37.970;2023-03-05T08:30:10;97767.63;;;-1.03;68.56
77867;BME280;67271;59.120;37.970;2023-03-05T08:32:37;97763.31;;;-1.19;68.35
77867;BME280;67271;59.120;37.970;2023-03-05T08:35:03;97762.38;;;-1.26;68.36
77867;BME280;67271;59.120;37.970;2023-03-05T08:37:29;97766.03;;;-1.27;68.80
77867;BME280;67271;59.120;37.970;2023-03-05T08:39:55;97766.06;;;-1.12;68.42
77867;BME280;67271;59.120;37.970;2023-03-05T08:42:22;97761.06;;;-0.93;67.75
77867;BME280;67271;59.120;37.970;2023-03-05T08:44:47;97762.63;;;-0.69;67.47
77867;BME280;67271;59.120;37.970;2023-03-05T08:47:13;97761.38;;;-0.52;67.30
77867;BME280;67271;59.120;37.970;2023-03-05T08:49:39;97765.63;;;-0.21;66.39
77867;BME280;67271;59.120;37.970;2023-03-05T08:52:05;97771.84;;;-0.65;66.69
77867;BME280;67271;59.120;37.970;2023-03-05T08:54:32;97769.53;;;-0.97;67.26
77867;BME280;67271;59.120;37.970;2023-03-05T08:56:58;97784.75;;;-0.91;67.66
77867;BME280;67271;59.120;37.970;2023-03-05T08:59:24;97776.81;;;-0.91;67.49
77867;BME280;67271;59.120;37.970;2023-03-05T09:01:50;97780.28;;;-1.05;67.78
77867;BME280;67271;59.120;37.970;2023-03-05T09:04:16;97788.66;;;-1.17;67.60
77867;BME280;67271;59.120;37.970;2023-03-05T09:06:42;97781.31;;;-1.29;67.94
77867;BME280;67271;59.120;37.970;2023-03-05T09:09:08;97785.63;;;-1.28;67.92
77867;BME280;67271;59.120;37.970;2023-03-05T09:11:34;97788.03;;;-1.04;66.86
77867;BME280;67271;59.120;37.970;2023-03-05T09:14:04;97788.69;;;-0.87;66.50
77867;BME280;67271;59.120;37.970;2023-03-05T09:16:30;97790.13;;;-1.14;66.46
77867;BME280;67271;59.120;37.970;2023-03-05T09:18:57;97790.00;;;-0.83;66.40
77867;BME280;67271;59.120;37.970;2023-03-05T09:21:23;97792.34;;;-0.59;65.41
77867;BME280;67271;59.120;37.970;2023-03-05T09:23:48;97783.13;;;-0.63;65.71
77867;BME280;67271;59.120;37.970;2023-03-05T09:26:15;97793.81;;;-0.56;65.62
77867;BME280;67271;59.120;37.970;2023-03-05T09:28:44;97789.03;;;-1.05;65.99
77867;BME280;67271;59.120;37.970;2023-03-05T09:31:10;97794.38;;;-1.28;66.71
77867;BME280;67271;59.120;37.970;2023-03-05T09:33:37;97805.06;;;-1.50;67.17
77867;BME280;67271;59.120;37.970;2023-03-05T09:36:12;97809.59;;;-1.59;67.47
77867;BME280;67271;59.120;37.970;2023-03-05T09:38:40;97795.03;;;-1.63;67.08
77867;BME280;67271;59.120;37.970;2023-03-05T09:44:01;97798.94;;;-1.51;66.83
77867;BME280;67271;59.120;37.970;2023-03-05T09:46:54;97796.50;;;-1.38;66.97
77867;BME280;67271;59.120;37.970;2023-03-05T09:49:48;97798.03;;;-1.43;66.38
77867;BME280;67271;59.120;37.970;2023-03-05T09:52:42;97805.78;;;-1.42;67.01
77867;BME280;67271;59.120;37.970;2023-03-05T09:55:31;97806.69;;;-1.49;66.40
77867;BME280;67271;59.120;37.970;2023-03-05T09:58:02;97809.22;;;-1.56;66.64
77867;BME280;67271;59.120;37.970;2023-03-05T10:00:43;97815.56;;;-1.65;66.57
77867;BME280;67271;59.120;37.970;2023-03-05T10:08:21;97807.88;;;-1.52;65.93
77867;BME280;67271;59.120;37.970;2023-03-05T10:10:51;97812.56;;;-1.39;65.82
77867;BME280;67271;59.120;37.970;2023-03-05T10:13:26;97812.13;;;-1.05;64.55
77867;BME280;67271;59.120;37.970;2023-03-05T10:27:16;97822.31;;;-1.54;65.29
77867;BME280;67271;59.120;37.970;2023-03-05T10:32:28;97823.56;;;-1.28;64.64
77867;BME280;67271;59.120;37.970;2023-03-05T10:47:48;97828.66;;;-1.64;64.82
77867;BME280;67271;59.120;37.970;2023-03-05T10:50:21;97839.63;;;-1.67;64.93
77867;BME280;67271;59.120;37.970;2023-03-05T10:55:28;97830.91;;;-1.30;64.09
77867;BME280;67271;59.120;37.970;2023-03-05T10:57:54;97829.78;;;-0.98;63.28
77867;BME280;67271;59.120;37.970;2023-03-05T11:00:25;97833.19;;;-0.60;62.88
77867;BME280;67271;59.120;37.970;2023-03-05T11:03:07;97830.53;;;-0.74;62.92
77867;BME280;67271;59.120;37.970;2023-03-05T11:16:24;97842.34;;;-0.77;63.27
77867;BME280;67271;59.120;37.970;2023-03-05T11:21:35;97844.25;;;-0.86;63.20
77867;BME280;67271;59.120;37.970;2023-03-05T11:24:18;97847.00;;;-0.79;63.30
77867;BME280;67271;59.120;37.970;2023-03-05T11:26:47;97842.19;;;-0.61;62.55
77867;BME280;67271;59.120;37.970;2023-03-05T11:29:23;97849.50;;;-0.63;62.50
77867;BME280;67271;59.120;37.970;2023-03-05T11:31:50;97848.09;;;-0.73;62.85
77867;BME280;67271;59.120;37.970;2023-03-05T11:39:25;97854.81;;;-0.63;62.52
77867;BME280;67271;59.120;37.970;2023-03-05T11:42:10;97850.16;;;-0.61;62.65
77867;BME280;67271;59.120;37.970;2023-03-05T11:44:50;97857.75;;;-0.58;62.27
77867;BME280;67271;59.120;37.970;2023-03-05T11:47:29;97855.00;;;-0.35;62.26
77867;BME280;67271;59.120;37.970;2023-03-05T11:50:17;97857.66;;;-0.35;62.07
77867;BME280;67271;59.120;37.970;2023-03-05T11:52:52;97860.69;;;-0.53;62.46
77867;BME280;67271;59.120;37.970;2023-03-05T11:55:41;97858.94;;;-0.46;62.15
77867;BME280;67271;59.120;37.970;2023-03-05T12:00:53;97865.06;;;-0.45;62.45
77867;BME280;67271;59.120;37.970;2023-03-05T12:03:23;97865.06;;;-0.60;62.82
77867;BME280;67271;59.120;37.970;2023-03-05T12:06:04;97863.69;;;-0.70;63.15
77867;BME280;67271;59.120;37.970;2023-03-05T12:08:36;97860.94;;;-0.77;63.61
77867;BME280;67271;59.120;37.970;2023-03-05T12:11:06;97868.88;;;-0.92;64.15
77867;BME280;67271;59.120;37.970;2023-03-05T12:13:42;97879.22;;;-1.20;64.60
77867;BME280;67271;59.120;37.970;2023-03-05T12:21:35;97885.63;;;-1.82;65.85
77867;BME280;67271;59.120;37.970;2023-03-05T12:47:45;97901.28;;;-1.96;65.50
77867;BME280;67271;59.120;37.970;2023-03-05T12:52:57;97894.94;;;-1.95;65.29
77867;BME280;67271;59.120;37.970;2023-03-05T12:58:16;97898.38;;;-2.25;65.89
77867;BME280;67271;59.120;37.970;2023-03-05T13:00:54;97902.56;;;-2.39;66.26
77867;BME280;67271;59.120;37.970;2023-03-05T13:03:27;97905.22;;;-2.39;66.26
77867;BME280;67271;59.120;37.970;2023-03-05T13:05:57;97911.03;;;-2.43;66.38
77867;BME280;67271;59.120;37.970;2023-03-05T13:08:29;97918.03;;;-2.58;66.74
77867;BME280;67271;59.120;37.970;2023-03-05T13:10:59;97914.41;;;-2.65;67.25
77867;BME280;67271;59.120;37.970;2023-03-05T13:13:30;97918.03;;;-2.75;67.37
77867;BME280;67271;59.120;37.970;2023-03-05T13:15:58;97921.84;;;-2.77;66.92
77867;BME280;67271;59.120;37.970;2023-03-05T13:18:29;97931.28;;;-2.83;67.47
77867;BME280;67271;59.120;37.970;2023-03-05T13:21:06;97928.31;;;-3.04;67.80
77867;BME280;67271;59.120;37.970;2023-03-05T13:23:33;97925.34;;;-3.25;68.20
77867;BME280;67271;59.120;37.970;2023-03-05T13:26:10;97928.97;;;-3.26;67.82
77867;BME280;67271;59.120;37.970;2023-03-05T13:28:41;97929.63;;;-3.32;68.23
77867;BME280;67271;59.120;37.970;2023-03-05T13:31:16;97933.56;;;-3.36;68.27
77867;BME280;67271;59.120;37.970;2023-03-05T13:33:55;97936.88;;;-3.34;68.01
77867;BME280;67271;59.120;37.970;2023-03-05T13:36:23;97934.91;;;-3.32;68.35
77867;BME280;67271;59.120;37.970;2023-03-05T13:38:50;97926.84;;;-3.31;68.31
77867;BME280;67271;59.120;37.970;2023-03-05T13:43:55;97939.53;;;-3.42;68.66
77867;BME280;67271;59.120;37.970;2023-03-05T13:46:36;97945.78;;;-3.52;68.52
77867;BME280;67271;59.120;37.970;2023-03-05T13:49:25;97943.28;;;-3.53;68.76
77867;BME280;67271;59.120;37.970;2023-03-05T13:51:54;97951.06;;;-3.52;68.37
77867;BME280;67271;59.120;37.970;2023-03-05T13:54:22;97953.06;;;-3.54;68.57
77867;BME280;67271;59.120;37.970;2023-03-05T13:59:18;97955.69;;;-3.62;68.88
77867;BME280;67271;59.120;37.970;2023-03-05T14:01:45;97950.72;;;-3.65;69.26
77867;BME280;67271;59.120;37.970;2023-03-05T14:07:05;97958.31;;;-3.70;69.13
77867;BME280;67271;59.120;37.970;2023-03-05T14:12:37;97969.88;;;-3.63;68.98
77867;BME280;67271;59.120;37.970;2023-03-05T14:15:30;97972.03;;;-3.58;68.66
77867;BME280;67271;59.120;37.970;2023-03-05T14:18:26;97970.19;;;-3.66;69.10
77867;BME280;67271;59.120;37.970;2023-03-05T14:21:09;97973.66;;;-3.65;69.05
77867;BME280;67271;59.120;37.970;2023-03-05T14:23:41;97981.44;;;-3.64;69.11
77867;BME280;67271;59.120;37.970;2023-03-05T14:26:24;97972.00;;;-3.66;68.87
77867;BME280;67271;59.120;37.970;2023-03-05T14:29:14;97982.72;;;-3.68;69.24
77867;BME280;67271;59.120;37.970;2023-03-05T14:32:03;97984.72;;;-3.70;69.43
77867;BME280;67271;59.120;37.970;2023-03-05T14:34:36;97992.47;;;-3.76;69.23
77867;BME280;67271;59.120;37.970;2023-03-05T14:37:16;97990.09;;;-3.87;69.94
77867;BME280;67271;59.120;37.970;2023-03-05T14:39:44;97991.59;;;-3.85;69.73
77867;BME280;67271;59.120;37.970;2023-03-05T14:42:27;97987.34;;;-3.78;69.45
77867;BME280;67271;59.120;37.970;2023-03-05T14:44:55;97990.97;;;-3.79;69.62
77867;BME280;67271;59.120;37.970;2023-03-05T14:47:23;97993.09;;;-3.82;69.90
77867;BME280;67271;59.120;37.970;2023-03-05T14:49:49;97995.91;;;-3.84;69.87
77867;BME280;67271;59.120;37.970;2023-03-05T14:52:17;97997.19;;;-3.88;70.25
77867;BME280;67271;59.120;37.970;2023-03-05T14:54:44;97996.16;;;-3.95;70.23